Time;durP1;ratioP1;P1;durP2;ratioP2;P2;SDS_P1;SDS_P2;PMS_P1;PMS_P2;Temp;Humidity;BMP_temperature;BMP_pressure;BME280_temperature;BME280_humidity;BME280_pressure;Samples;Min_cycle;Max_cycle;Signal;HPM_P1;HPM_P2
2021/05/30 00:01:53;;;;;;;;;7.50;7.50;;;;;23.13;41.69;101963.16;4977943;28;46126;-63
2021/05/30 00:04:18;;;;;;;;;8.00;8.00;;;;;23.13;41.56;101962.31;4991376;28;45498;-63
2021/05/30 00:06:44;;;;;;;;;8.00;8.00;;;;;23.12;41.22;101961.44;4988597;28;45736;-63
2021/05/30 00:09:09;;;;;;;;;8.25;8.00;;;;;23.11;41.92;101958.88;4990034;28;45699;-63
2021/05/30 00:11:35;;;;;;;;;9.00;7.00;;;;;23.11;41.44;101957.09;4995864;28;45612;-63
2021/05/30 00:14:04;;;;;;;;;9.50;9.50;;;;;23.08;41.77;101954.63;4993520;28;45562;-62
2021/05/30 00:16:30;;;;;;;;;8.75;8.50;;;;;23.10;41.46;101965.13;4996721;27;45594;-63
2021/05/30 00:18:56;;;;;;;;;8.50;8.50;;;;;23.09;41.69;101961.59;4995855;28;45792;-62
2021/05/30 00:21:21;;;;;;;;;9.00;7.00;;;;;23.08;41.49;101959.91;4996694;28;46127;-62
2021/05/30 00:23:47;;;;;;;;;8.50;8.50;;;;;23.08;41.52;101959.03;4993699;27;45539;-62
2021/05/30 00:26:13;;;;;;;;;10.00;8.25;;;;;23.07;41.76;101960.81;4985666;27;45770;-63
2021/05/30 00:28:38;;;;;;;;;9.50;9.50;;;;;23.07;41.54;101958.16;4985865;28;45591;-62
2021/05/30 00:31:04;;;;;;;;;7.75;7.75;;;;;23.07;41.56;101957.34;4987045;28;46364;-62
2021/05/30 00:33:29;;;;;;;;;6.00;6.00;;;;;23.07;41.84;101954.69;4995169;28;45769;-63
2021/05/30 00:35:55;;;;;;;;;7.00;7.00;;;;;23.05;41.53;101949.44;4989940;28;45789;-62
2021/05/30 00:38:20;;;;;;;;;9.00;8.25;;;;;23.07;41.47;101957.34;4990711;28;46408;-62
2021/05/30 00:40:46;;;;;;;;;8.75;7.50;;;;;23.05;41.53;101957.38;4992137;28;45837;-62
2021/05/30 00:43:11;;;;;;;;;7.25;7.25;;;;;23.04;41.46;101955.69;4988086;28;45513;-63
2021/05/30 00:45:37;;;;;;;;;7.00;7.00;;;;;23.05;41.58;101959.19;4996827;28;45516;-62
2021/05/30 00:48:03;;;;;;;;;5.75;5.75;;;;;23.02;41.10;101952.25;4982916;28;45552;-63
2021/05/30 00:50:28;;;;;;;;;13.75;8.00;;;;;23.04;41.71;101955.69;4996031;28;46083;-62
2021/05/30 00:52:54;;;;;;;;;9.00;9.00;;;;;23.00;41.47;101947.06;4971229;28;45577;-62
2021/05/30 00:55:20;;;;;;;;;8.50;7.50;;;;;23.04;41.14;101947.75;4979046;28;45489;-63
2021/05/30 00:57:45;;;;;;;;;7.00;7.00;;;;;23.03;41.64;101948.69;5029777;27;45842;-63
2021/05/30 01:00:12;;;;;;;;;5.25;5.25;;;;;22.98;41.62;101942.75;4999815;28;46019;-62
2021/05/30 01:02:38;;;;;;;;;7.75;7.75;;;;;23.01;41.66;101948.75;4994827;28;45582;-62
2021/05/30 01:05:05;;;;;;;;;8.00;6.00;;;;;22.99;41.14;101950.63;4978531;28;45431;-62
2021/05/30 01:07:30;;;;;;;;;7.75;5.75;;;;;22.99;41.62;101952.41;4989894;28;45513;-62
2021/05/30 01:09:56;;;;;;;;;9.50;8.25;;;;;22.99;41.25;101947.13;4994896;28;45854;-63
2021/05/30 01:12:21;;;;;;;;;9.75;8.00;;;;;22.99;41.62;101948.00;4994817;28;45812;-62
2021/05/30 01:14:47;;;;;;;;;9.25;8.25;;;;;22.98;41.38;101946.25;4958965;28;45513;-62
2021/05/30 01:17:12;;;;;;;;;7.75;7.00;;;;;22.97;41.59;101944.56;4973732;28;45513;-63
2021/05/30 01:19:39;;;;;;;;;8.50;8.25;;;;;22.94;41.37;101942.06;4995795;28;46039;-62
2021/05/30 01:22:07;;;;;;;;;7.50;7.00;;;;;22.96;41.12;101942.84;4995840;27;45505;-63
2021/05/30 01:24:34;;;;;;;;;6.50;6.50;;;;;22.95;41.31;101943.78;4994917;28;45501;-62
2021/05/30 01:26:59;;;;;;;;;7.00;7.00;;;;;22.95;41.28;101937.63;4976657;28;45514;-62
2021/05/30 01:29:24;;;;;;;;;7.75;7.25;;;;;22.94;41.71;101942.06;5010738;27;47617;-62
2021/05/30 01:31:50;;;;;;;;;8.25;6.25;;;;;22.95;41.32;101940.28;4992449;28;45746;-63
2021/05/30 01:34:15;;;;;;;;;7.00;7.00;;;;;22.94;41.27;101946.50;4995729;28;45760;-63
2021/05/30 01:36:41;;;;;;;;;8.25;7.50;;;;;22.94;41.60;101938.56;4994845;28;45486;-62
2021/05/30 01:39:07;;;;;;;;;11.50;8.00;;;;;22.93;41.36;101939.47;4994609;28;46519;-63
2021/05/30 01:41:32;;;;;;;;;8.50;7.75;;;;;22.93;41.33;101939.47;4985177;28;45480;-62
2021/05/30 01:43:57;;;;;;;;;6.25;6.25;;;;;22.92;41.12;101937.78;4987243;28;45461;-62
2021/05/30 01:46:23;;;;;;;;;7.50;7.50;;;;;22.88;41.33;101932.66;4977799;28;45544;-62
2021/05/30 01:48:48;;;;;;;;;8.00;7.25;;;;;22.91;41.20;101931.63;4964574;28;47410;-63
2021/05/30 01:51:14;;;;;;;;;7.50;7.00;;;;;22.91;41.31;101938.72;4995388;28;45583;-62
2021/05/30 01:54:21;;;;;;;;;7.00;7.00;;;;;22.88;41.26;101935.31;4994625;28;45433;-62
2021/05/30 01:59:13;;;;;;;;;10.50;8.50;;;;;22.87;41.49;101930.94;4990414;28;45728;-63
2021/05/30 02:01:39;;;;;;;;;9.00;7.00;;;;;22.88;41.01;101932.66;4980857;28;45422;-62
2021/05/30 02:04:04;;;;;;;;;8.00;8.00;;;;;22.86;41.38;101933.66;4968671;28;45429;-62
2021/05/30 02:06:30;;;;;;;;;8.00;8.00;;;;;22.87;41.34;101941.50;4980520;28;45778;-62
2021/05/30 02:08:56;;;;;;;;;8.50;7.50;;;;;22.87;41.49;101943.31;4997094;28;45761;-62
2021/05/30 02:11:21;;;;;;;;;8.00;7.50;;;;;22.86;40.83;101937.16;4996619;28;45527;-62
2021/05/30 02:13:47;;;;;;;;;6.75;6.25;;;;;22.84;41.24;101936.38;4970080;28;45497;-62
2021/05/30 02:16:12;;;;;;;;;8.00;8.00;;;;;22.85;41.23;101938.06;4998571;28;45462;-62
2021/05/30 02:18:38;;;;;;;;;7.00;7.00;;;;;22.80;41.40;101937.44;4997951;27;45959;-62
2021/05/30 02:21:03;;;;;;;;;7.50;6.00;;;;;22.84;41.22;101946.94;4996447;27;45554;-63
2021/05/30 02:23:29;;;;;;;;;8.25;6.75;;;;;22.84;41.24;101946.09;4998737;27;45783;-62
2021/05/30 02:25:54;;;;;;;;;6.00;5.50;;;;;22.84;41.48;101944.31;4968363;28;45603;-63
2021/05/30 02:28:20;;;;;;;;;6.75;5.50;;;;;22.82;41.15;101947.94;4986300;28;45551;-63
2021/05/30 02:30:45;;;;;;;;;6.00;6.00;;;;;22.82;41.45;101946.16;4987528;28;45356;-63
2021/05/30 02:33:11;;;;;;;;;8.75;8.75;;;;;22.82;41.38;101938.22;4987886;28;45721;-63
2021/05/30 02:35:36;;;;;;;;;6.00;6.00;;;;;22.82;41.30;101942.66;4998292;27;45444;-63
2021/05/30 02:38:04;;;;;;;;;8.00;7.50;;;;;22.79;41.35;101941.03;4998035;28;45919;-63
2021/05/30 02:40:29;;;;;;;;;7.00;7.00;;;;;22.80;41.21;101940.09;4995898;27;45554;-62
2021/05/30 02:42:55;;;;;;;;;5.00;5.00;;;;;22.80;41.04;101940.09;4985143;28;45872;-63
2021/05/30 02:45:20;;;;;;;;;6.25;5.50;;;;;22.80;41.32;101936.63;4995961;28;45444;-63
2021/05/30 02:47:47;;;;;;;;;6.00;6.00;;;;;22.79;41.21;101945.44;4985188;28;45975;-62
2021/05/30 02:50:12;;;;;;;;;6.50;6.00;;;;;22.77;41.14;101941.13;4950100;28;45563;-63
2021/05/30 02:52:38;;;;;;;;;5.00;5.00;;;;;22.76;41.33;101938.53;4996887;28;45499;-62
2021/05/30 02:55:04;;;;;;;;;9.25;8.00;;;;;22.77;40.95;101942.88;4992080;28;45488;-62
2021/05/30 02:57:29;;;;;;;;;5.75;5.75;;;;;22.77;41.33;101937.59;5007157;27;46333;-63
2021/05/30 02:59:54;;;;;;;;;6.50;6.50;;;;;22.76;41.39;101941.19;4989372;28;45483;-62
2021/05/30 03:02:20;;;;;;;;;8.75;7.75;;;;;22.74;40.88;101943.03;4996829;28;45831;-63
2021/05/30 03:04:46;;;;;;;;;7.00;7.00;;;;;22.72;41.24;101940.47;4997801;27;45675;-63
2021/05/30 03:07:11;;;;;;;;;7.00;6.50;;;;;22.74;41.23;101943.88;4980642;28;46762;-63
2021/05/30 03:09:38;;;;;;;;;9.75;8.00;;;;;22.73;41.22;101939.53;4982367;28;45965;-63
2021/05/30 03:12:05;;;;;;;;;6.00;6.00;;;;;22.73;41.02;101941.31;4985930;28;45725;-62
2021/05/30 03:14:30;;;;;;;;;7.75;7.75;;;;;22.73;41.04;101944.81;4986318;28;45666;-62
2021/05/30 03:16:56;;;;;;;;;5.75;5.75;;;;;22.72;41.28;101943.13;4997625;28;46239;-63
2021/05/30 03:19:21;;;;;;;;;6.25;6.25;;;;;22.70;41.35;101952.91;4997191;28;45788;-62
2021/05/30 03:21:47;;;;;;;;;6.25;6.25;;;;;22.70;41.49;101947.63;4988047;27;45547;-63
2021/05/30 03:24:12;;;;;;;;;5.25;5.25;;;;;22.71;41.42;101951.13;4979948;28;45673;-63
2021/05/30 03:26:38;;;;;;;;;7.50;6.00;;;;;22.70;41.38;101954.69;4996306;27;45951;-62
2021/05/30 03:29:04;;;;;;;;;5.50;5.50;;;;;22.71;41.26;101951.13;4992891;28;45487;-62
2021/05/30 03:31:29;;;;;;;;;7.00;7.00;;;;;22.69;41.25;101953.81;4990496;28;45676;-63
2021/05/30 03:33:55;;;;;;;;;6.75;6.75;;;;;22.68;40.99;101956.53;4997521;28;45804;-63
2021/05/30 03:36:25;;;;;;;;;6.75;5.50;;;;;22.68;41.02;101952.13;4996893;28;46258;-62
2021/05/30 03:38:58;;;;;;;;;7.00;6.00;;;;;22.68;41.03;101954.75;4997295;27;45531;-63
2021/05/30 03:41:25;;;;;;;;;7.25;7.25;;;;;22.67;41.28;101949.56;4994747;28;45555;-62
2021/05/30 03:43:51;;;;;;;;;4.00;4.00;;;;;22.67;41.17;101955.72;4995464;27;45610;-63
2021/05/30 03:46:16;;;;;;;;;5.50;5.50;;;;;22.67;41.00;101962.78;4996183;28;46035;-62
2021/05/30 03:48:42;;;;;;;;;5.25;5.25;;;;;22.66;41.38;101959.25;4996511;28;45486;-63
2021/05/30 03:51:07;;;;;;;;;5.00;5.00;;;;;22.64;41.20;101959.34;4996115;28;45753;-62
2021/05/30 03:53:33;;;;;;;;;7.75;7.00;;;;;22.65;40.94;101957.56;4997463;28;45727;-62
2021/05/30 03:55:58;;;;;;;;;6.00;6.00;;;;;22.64;41.40;101948.78;4996065;28;46154;-63
2021/05/30 03:58:24;;;;;;;;;7.50;6.75;;;;;22.65;41.46;101957.56;5046223;27;45473;-62
2021/05/30 04:00:49;;;;;;;;;7.00;7.00;;;;;22.63;41.02;101957.63;4988231;28;45491;-63
2021/05/30 04:03:15;;;;;;;;;6.00;6.00;;;;;22.63;41.14;101951.50;4989734;28;45723;-62
2021/05/30 04:05:40;;;;;;;;;6.75;6.00;;;;;22.62;41.37;101955.00;4989975;28;46175;-62
2021/05/30 04:08:06;;;;;;;;;6.25;6.25;;;;;22.61;41.47;101951.53;4983875;28;45358;-62
2021/05/30 04:10:31;;;;;;;;;7.75;6.00;;;;;22.62;41.51;101949.72;4995584;28;45579;-62
2021/05/30 04:12:57;;;;;;;;;5.50;5.50;;;;;22.62;41.24;101949.72;4995242;28;45767;-63
2021/05/30 04:15:22;;;;;;;;;6.50;5.00;;;;;22.60;41.20;101952.44;4997102;27;46012;-62
2021/05/30 04:17:48;;;;;;;;;6.50;5.00;;;;;22.60;41.23;101964.81;4976331;28;45489;-63
2021/05/30 04:20:16;;;;;;;;;7.75;7.50;;;;;22.59;41.70;101957.81;4990092;28;45646;-63
2021/05/30 04:22:41;;;;;;;;;8.00;6.00;;;;;22.59;41.10;101958.69;4995371;27;45928;-62
2021/05/30 04:25:08;;;;;;;;;6.75;6.00;;;;;22.59;41.44;101960.44;4993603;27;46060;-63
2021/05/30 04:27:36;;;;;;;;;7.50;6.25;;;;;22.58;41.23;101959.59;4993656;27;45514;-62
2021/05/30 04:30:05;;;;;;;;;7.00;5.25;;;;;22.57;40.97;101959.66;4996354;28;45744;-62
2021/05/30 04:32:31;;;;;;;;;6.00;6.00;;;;;22.56;40.97;101958.81;4997078;28;45569;-62
2021/05/30 04:34:56;;;;;;;;;5.75;5.75;;;;;22.57;41.24;101957.88;4975615;28;46947;-62
2021/05/30 04:37:22;;;;;;;;;6.25;6.25;;;;;22.55;41.12;101951.81;4988961;28;45797;-62
2021/05/30 04:39:47;;;;;;;;;6.25;6.00;;;;;22.56;41.12;101956.19;4980867;28;45487;-62
2021/05/30 04:42:13;;;;;;;;;7.00;7.00;;;;;22.56;41.23;101960.59;4984285;27;45436;-62
2021/05/30 04:44:38;;;;;;;;;6.00;6.00;;;;;22.54;41.11;101958.03;4988668;28;46093;-63
2021/05/30 04:47:04;;;;;;;;;7.50;7.00;;;;;22.55;41.17;101957.09;4978472;28;45764;-63
2021/05/30 04:49:30;;;;;;;;;5.50;5.50;;;;;22.56;41.57;101957.97;4996516;28;45404;-63
2021/05/30 04:51:55;;;;;;;;;7.50;7.50;;;;;22.52;41.21;101958.13;4996830;28;45430;-62
2021/05/30 04:54:21;;;;;;;;;7.25;7.25;;;;;22.54;41.08;101961.50;4984412;28;45366;-62
2021/05/30 04:56:46;;;;;;;;;7.00;6.50;;;;;22.54;41.14;101955.41;5003368;27;45362;-62
2021/05/30 04:59:12;;;;;;;;;7.00;7.00;;;;;22.54;41.31;101958.88;5033705;27;45439;-63
2021/05/30 05:01:37;;;;;;;;;6.00;5.25;;;;;22.53;41.10;101954.53;4984066;28;45473;-63
2021/05/30 05:04:03;;;;;;;;;7.00;6.00;;;;;22.54;41.21;101958.88;4996226;28;46411;-63
2021/05/30 05:06:28;;;;;;;;;8.00;8.00;;;;;22.53;41.22;101958.94;4996174;28;45461;-62
2021/05/30 05:08:54;;;;;;;;;8.25;8.25;;;;;22.53;41.11;101964.22;4995258;28;45706;-62
2021/05/30 05:11:19;;;;;;;;;7.00;6.75;;;;;22.52;41.46;101966.03;4995340;28;45417;-63
2021/05/30 05:13:45;;;;;;;;;7.25;6.75;;;;;22.53;41.20;101974.81;4965065;28;46207;-62
2021/05/30 05:16:10;;;;;;;;;6.00;6.00;;;;;22.53;41.26;101969.53;4996145;28;45432;-62
2021/05/30 05:18:36;;;;;;;;;5.00;5.00;;;;;22.51;41.35;101959.03;4995686;27;45836;-62
2021/05/30 05:21:03;;;;;;;;;6.25;6.00;;;;;22.50;41.18;101957.31;4995125;28;45785;-63
2021/05/30 05:23:29;;;;;;;;;8.25;8.00;;;;;22.52;41.13;101959.88;4995576;27;46177;-63
2021/05/30 05:25:56;;;;;;;;;6.75;5.25;;;;;22.51;41.13;101953.75;4984779;27;45520;-63
2021/05/30 05:28:22;;;;;;;;;9.00;8.75;;;;;22.50;41.04;101953.81;4995959;28;45795;-62
2021/05/30 05:30:48;;;;;;;;;6.00;6.00;;;;;22.49;41.21;101949.47;4994531;28;45558;-62
2021/05/30 05:33:14;;;;;;;;;6.25;6.25;;;;;22.50;41.38;101954.69;4975071;28;47573;-62
2021/05/30 05:35:39;;;;;;;;;6.00;5.25;;;;;22.51;41.04;101956.38;4998232;28;45533;-62
2021/05/30 05:38:05;;;;;;;;;7.00;7.00;;;;;22.51;41.41;101958.16;4998931;27;45617;-62
2021/05/30 05:40:30;;;;;;;;;7.00;7.00;;;;;22.50;41.29;101953.81;4963766;28;45455;-62
2021/05/30 05:42:56;;;;;;;;;6.75;6.75;;;;;22.50;41.21;101959.09;4996204;27;46438;-62
2021/05/30 05:45:23;;;;;;;;;6.25;6.25;;;;;22.50;41.33;101962.63;4961387;28;45462;-62
2021/05/30 05:47:49;;;;;;;;;6.00;6.00;;;;;22.49;41.16;101960.88;4989819;28;45497;-62
2021/05/30 05:50:15;;;;;;;;;7.75;6.00;;;;;22.49;41.22;101958.25;4997722;27;45852;-63
2021/05/30 05:52:41;;;;;;;;;7.00;7.00;;;;;22.50;41.30;101964.38;4998580;28;45477;-62
2021/05/30 05:55:07;;;;;;;;;7.00;7.00;;;;;22.48;41.14;101953.91;4997599;28;45858;-62
2021/05/30 05:57:34;;;;;;;;;7.00;6.00;;;;;22.47;41.13;101949.56;5044429;27;45508;-62
2021/05/30 05:59:59;;;;;;;;;6.00;6.00;;;;;22.48;41.21;101953.03;4984747;28;46198;-62
2021/05/30 06:02:25;;;;;;;;;5.75;5.50;;;;;22.50;41.32;101962.63;4990777;28;46009;-62
2021/05/30 06:04:51;;;;;;;;;6.50;6.00;;;;;22.49;41.07;101955.59;4996891;28;45480;-62
2021/05/30 06:07:16;;;;;;;;;6.00;5.50;;;;;22.49;41.17;101960.88;4997552;28;45530;-63
2021/05/30 06:09:42;;;;;;;;;6.25;6.25;;;;;22.50;41.14;101956.47;4995833;28;45764;-63
2021/05/30 06:12:08;;;;;;;;;5.00;5.00;;;;;22.49;41.16;101954.75;4972088;28;46367;-62
2021/05/30 06:14:33;;;;;;;;;6.00;6.00;;;;;22.51;41.09;101948.47;4998445;28;45760;-62
2021/05/30 06:16:59;;;;;;;;;5.00;5.00;;;;;22.53;41.96;101957.19;4998655;28;45847;-62
2021/05/30 06:19:26;;;;;;;;;6.00;6.00;;;;;22.54;42.46;101952.75;4997029;28;45824;-62
2021/05/30 06:21:51;;;;;;;;;7.00;5.00;;;;;22.57;43.21;101957.88;4998453;27;46525;-62
2021/05/30 06:24:17;;;;;;;;;5.50;5.50;;;;;22.58;43.37;101959.59;4992653;28;45510;-62
2021/05/30 06:26:42;;;;;;;;;5.00;5.00;;;;;22.59;43.41;101957.81;4991353;27;45936;-62
2021/05/30 06:29:08;;;;;;;;;6.00;5.00;;;;;22.62;43.62;101957.66;4997039;27;45512;-62
2021/05/30 06:31:33;;;;;;;;;6.25;3.50;;;;;22.62;43.78;101955.00;4987425;28;46364;-62
2021/05/30 06:33:59;;;;;;;;;6.00;6.00;;;;;22.63;44.03;101964.69;4997152;28;45381;-62
2021/05/30 06:36:24;;;;;;;;;4.25;4.25;;;;;22.64;43.89;101961.97;4998101;28;45444;-62
2021/05/30 06:38:50;;;;;;;;;4.75;4.50;;;;;22.64;43.92;101961.13;4998319;28;45456;-62
2021/05/30 06:41:17;;;;;;;;;5.75;5.75;;;;;22.67;43.92;101962.78;4995223;28;46078;-62
2021/05/30 06:43:43;;;;;;;;;5.00;5.00;;;;;22.66;43.61;101961.91;4985982;28;45511;-62
2021/05/30 06:46:08;;;;;;;;;4.00;4.00;;;;;22.68;43.94;101964.47;4997399;28;45486;-62
2021/05/30 06:48:34;;;;;;;;;5.00;4.00;;;;;22.67;44.09;101963.63;4998077;28;45820;-62
2021/05/30 06:51:18;;;;;;;;;5.75;5.75;;;;;22.69;44.08;101958.28;4997699;27;46287;-62
2021/05/30 06:53:47;;;;;;;;;6.50;5.00;;;;;22.70;44.09;101963.47;4985978;27;45605;-62
2021/05/30 06:56:13;;;;;;;;;5.00;5.00;;;;;22.70;44.02;101968.78;4998006;28;45662;-62
2021/05/30 06:58:39;;;;;;;;;1.75;1.75;;;;;22.72;44.06;101976.63;5048343;27;45570;-62
2021/05/30 07:01:05;;;;;;;;;5.25;5.25;;;;;22.72;43.84;101966.91;5000653;28;45620;-62
2021/05/30 07:03:30;;;;;;;;;4.75;4.75;;;;;22.73;44.07;101967.75;4997819;28;45431;-62
2021/05/30 07:05:57;;;;;;;;;5.50;5.50;;;;;22.74;44.00;101980.88;4997336;27;45424;-62
2021/05/30 07:08:22;;;;;;;;;5.00;5.00;;;;;22.75;44.12;101969.41;4998078;28;45880;-62
2021/05/30 07:10:48;;;;;;;;;4.50;4.50;;;;;22.75;43.98;101964.13;4996940;28;45531;-63
2021/05/30 07:13:14;;;;;;;;;9.00;6.75;;;;;22.76;44.04;101972.91;4992334;28;45514;-63
2021/05/30 07:15:39;;;;;;;;;12.75;9.50;;;;;22.75;44.14;101969.41;4983269;28;45511;-63
2021/05/30 07:18:05;;;;;;;;;16.00;13.00;;;;;22.78;44.15;101971.03;4986887;28;45426;-62
2021/05/30 07:20:30;;;;;;;;;25.00;17.50;;;;;22.79;44.34;101977.19;4995465;28;45776;-62
2021/05/30 07:22:56;;;;;;;;;25.00;20.25;;;;;22.82;44.45;101977.00;4980234;28;45904;-61
2021/05/30 07:25:21;;;;;;;;;34.75;26.25;;;;;22.82;45.15;101975.25;4994151;28;45602;-62
2021/05/30 07:27:47;;;;;;;;;32.00;25.75;;;;;22.84;45.82;101972.53;4998083;27;45448;-62
2021/05/30 07:30:13;;;;;;;;;43.75;29.75;;;;;22.85;46.43;101972.44;4997256;28;46777;-61
2021/05/30 07:32:38;;;;;;;;;40.00;27.75;;;;;22.86;46.65;101965.38;4986901;28;45411;-62
2021/05/30 07:35:05;;;;;;;;;31.75;22.75;;;;;22.90;46.97;101966.94;4997034;28;45496;-61
2021/05/30 07:37:30;;;;;;;;;27.00;21.25;;;;;22.90;47.14;101966.94;4984979;28;45812;-62
2021/05/30 07:39:56;;;;;;;;;34.25;22.00;;;;;22.93;48.11;101968.56;4997050;28;45732;-62
2021/05/30 07:42:21;;;;;;;;;34.75;21.75;;;;;22.93;48.34;101960.63;4980004;28;45767;-61
2021/05/30 07:44:47;;;;;;;;;23.75;19.00;;;;;22.93;48.26;101958.00;4990869;28;45780;-62
2021/05/30 07:47:12;;;;;;;;;22.00;15.75;;;;;22.96;48.63;101966.63;4997544;27;45518;-61
2021/05/30 07:49:38;;;;;;;;;27.75;19.25;;;;;22.95;47.94;101957.00;4996814;28;45740;-62
2021/05/30 07:52:04;;;;;;;;;23.00;19.00;;;;;22.97;48.72;101962.22;4986625;27;45504;-62
2021/05/30 07:54:29;;;;;;;;;18.50;17.75;;;;;22.97;48.18;101959.56;4995889;28;45825;-61
2021/05/30 07:56:54;;;;;;;;;24.75;16.75;;;;;22.98;48.57;101961.25;5015385;27;45959;-62
2021/05/30 07:59:20;;;;;;;;;21.25;15.00;;;;;22.98;48.26;101956.84;5012228;28;45692;-61
2021/05/30 08:01:48;;;;;;;;;19.25;12.75;;;;;22.98;47.89;101950.69;4997186;28;45559;-61
2021/05/30 08:04:13;;;;;;;;;21.00;16.00;;;;;22.99;48.26;101944.50;4996510;27;45526;-62
2021/05/30 08:06:39;;;;;;;;;14.00;11.25;;;;;22.99;48.12;101947.13;4997480;28;45518;-62
2021/05/30 08:09:05;;;;;;;;;13.25;12.50;;;;;23.00;47.81;101949.69;4983709;28;45766;-62
2021/05/30 08:11:30;;;;;;;;;19.50;13.75;;;;;23.00;47.85;101947.06;4994997;28;45566;-61
2021/05/30 08:13:56;;;;;;;;;19.25;13.75;;;;;23.01;48.01;101947.91;4988921;28;45503;-62
2021/05/30 08:16:21;;;;;;;;;18.50;13.25;;;;;23.01;47.94;101953.19;4997501;28;45477;-61
2021/05/30 08:18:47;;;;;;;;;15.00;14.00;;;;;23.02;47.92;101949.63;4996424;28;45776;-61
2021/05/30 08:21:13;;;;;;;;;17.25;14.00;;;;;23.02;47.83;101946.97;4996862;28;45708;-62
2021/05/30 08:23:41;;;;;;;;;15.75;13.25;;;;;23.01;47.71;101951.41;4996768;27;45745;-62
2021/05/30 08:26:08;;;;;;;;;15.75;13.50;;;;;23.04;47.79;101958.34;4993047;27;45781;-62
2021/05/30 08:28:33;;;;;;;;;28.00;16.00;;;;;23.01;47.52;101950.56;4984782;28;45556;-62
2021/05/30 08:30:59;;;;;;;;;17.50;14.50;;;;;23.04;47.51;101953.03;4991011;27;45451;-62
2021/05/30 08:33:24;;;;;;;;;11.75;11.50;;;;;23.03;47.97;101951.34;4992178;28;45433;-61
2021/05/30 08:35:50;;;;;;;;;14.25;12.25;;;;;23.02;47.71;101952.25;4990865;28;45745;-62
2021/05/30 08:38:15;;;;;;;;;14.50;12.25;;;;;23.04;47.85;101953.03;4990002;28;45538;-62
2021/05/30 08:40:41;;;;;;;;;12.75;12.00;;;;;23.05;47.78;101946.81;4992588;28;45467;-61
2021/05/30 08:43:07;;;;;;;;;14.00;12.00;;;;;23.06;47.64;101942.38;4977368;28;45856;-61
2021/05/30 08:45:32;;;;;;;;;16.00;14.00;;;;;23.06;47.71;101939.75;4988894;28;45755;-61
2021/05/30 08:47:58;;;;;;;;;3.50;1.00;;;;;23.06;47.78;101937.97;4990090;28;46295;-61
2021/05/30 08:50:23;;;;;;;;;13.75;12.00;;;;;23.07;47.76;101937.00;4983375;28;45709;-62
2021/05/30 08:52:49;;;;;;;;;15.50;12.75;;;;;23.06;47.44;101926.53;4996499;27;45685;-62
2021/05/30 08:55:15;;;;;;;;;14.75;10.75;;;;;23.07;47.82;101937.00;4984310;28;45701;-61
2021/05/30 08:57:40;;;;;;;;;13.75;13.25;;;;;23.07;47.85;101922.97;5044396;27;45507;-62
2021/05/30 09:00:08;;;;;;;;;15.25;13.00;;;;;23.08;47.48;101929.94;4998856;28;45527;-61
2021/05/30 09:02:33;;;;;;;;;14.00;14.00;;;;;23.07;47.33;101934.38;4996574;28;45410;-62
2021/05/30 09:05:04;;;;;;;;;18.50;13.50;;;;;23.08;47.17;101927.31;4994767;28;45892;-61
2021/05/30 09:07:43;;;;;;;;;11.00;10.75;;;;;23.09;47.49;101926.34;4989963;28;45808;-62
2021/05/30 09:10:13;;;;;;;;;14.75;9.75;;;;;23.09;47.66;101921.06;4995474;27;45434;-61
2021/05/30 09:12:39;;;;;;;;;13.25;11.25;;;;;23.08;47.50;101919.38;4996198;28;45384;-61
2021/05/30 09:15:14;;;;;;;;;12.75;11.75;;;;;23.09;47.45;101923.72;4995550;28;45492;-62
2021/05/30 09:17:39;;;;;;;;;12.25;11.25;;;;;23.10;47.52;101918.38;4995507;27;45851;-62
2021/05/30 09:20:07;;;;;;;;;11.50;10.25;;;;;23.10;47.17;101923.66;4995545;28;45589;-62
2021/05/30 09:22:43;;;;;;;;;10.50;8.50;;;;;23.10;47.05;101926.31;4995883;27;45446;-62
2021/05/30 09:25:16;;;;;;;;;14.00;11.25;;;;;23.11;47.27;101922.72;4993399;27;45492;-61
2021/05/30 09:28:03;;;;;;;;;12.50;10.75;;;;;23.11;47.10;101922.72;4995819;27;46124;-62
2021/05/30 09:30:34;;;;;;;;;13.00;11.00;;;;;23.11;47.28;101924.50;4984239;28;45505;-62
2021/05/30 09:33:07;;;;;;;;;10.25;9.25;;;;;23.11;46.90;101919.22;4996071;28;45470;-62
2021/05/30 09:35:43;;;;;;;;;12.00;10.25;;;;;23.11;46.92;101917.44;4992638;28;45515;-62
2021/05/30 09:38:18;;;;;;;;;11.25;9.00;;;;;23.11;47.13;101914.78;4995983;28;46779;-62
2021/05/30 09:40:47;;;;;;;;;13.50;11.00;;;;;23.12;46.94;101919.13;4982763;28;45587;-62
2021/05/30 09:43:18;;;;;;;;;13.00;11.00;;;;;23.11;47.01;101921.84;4990135;28;45444;-61
2021/05/30 09:46:34;;;;;;;;;10.50;8.50;;;;;23.12;47.00;101913.84;4995148;28;45511;-61
2021/05/30 09:49:00;;;;;;;;;12.75;10.75;;;;;23.13;46.95;101910.28;4953414;28;45575;-61
2021/05/30 09:51:39;;;;;;;;;11.00;11.00;;;;;23.12;46.75;101900.63;4973681;28;45492;-61
2021/05/30 09:54:10;;;;;;;;;11.25;10.00;;;;;23.13;46.55;101910.28;4995687;28;45384;-61
2021/05/30 09:56:43;;;;;;;;;10.25;7.50;;;;;23.14;46.72;101900.56;5000640;27;46287;-61
2021/05/30 09:59:15;;;;;;;;;11.00;9.25;;;;;23.15;46.63;101896.97;5032269;27;46824;-61
2021/05/30 10:01:58;;;;;;;;;9.00;7.50;;;;;23.16;46.49;101900.47;4981515;28;45488;-61
2021/05/30 10:04:34;;;;;;;;;9.00;9.00;;;;;23.17;46.54;101894.25;4995198;28;45519;-61
2021/05/30 10:07:01;;;;;;;;;8.75;8.25;;;;;23.19;46.41;101889.72;4995899;28;45503;-61
2021/05/30 10:09:27;;;;;;;;;10.00;9.75;;;;;23.18;46.79;101895.94;4994579;28;45871;-61
2021/05/30 10:11:53;;;;;;;;;10.25;10.25;;;;;23.20;46.27;101896.72;4995140;28;45553;-62
2021/05/30 10:14:18;;;;;;;;;9.50;9.50;;;;;23.20;46.33;101884.38;4995373;28;45449;-61
2021/05/30 10:16:44;;;;;;;;;10.75;10.00;;;;;23.21;46.27;101888.72;4995199;28;45709;-61
2021/05/30 10:19:13;;;;;;;;;8.25;8.25;;;;;23.21;46.17;101883.41;4982008;28;45670;-61
2021/05/30 10:21:49;;;;;;;;;11.50;8.75;;;;;23.23;46.40;101889.50;4983536;27;45831;-61
2021/05/30 10:24:15;;;;;;;;;9.75;8.75;;;;;23.24;46.39;101887.72;4997120;28;45506;-61
2021/05/30 10:26:40;;;;;;;;;9.00;8.25;;;;;23.24;45.95;101882.41;4989181;27;45545;-62
2021/05/30 10:29:14;;;;;;;;;13.00;10.00;;;;;23.25;46.35;101882.34;4985619;28;45790;-62
2021/05/30 10:31:42;;;;;;;;;10.00;8.50;;;;;23.27;46.27;101884.06;4998276;28;45677;-62
2021/05/30 10:34:14;;;;;;;;;10.00;9.00;;;;;23.28;46.00;101883.13;4998131;28;45579;-61
2021/05/30 10:37:04;;;;;;;;;9.00;8.00;;;;;23.28;46.16;101885.75;4998457;28;45538;-62
2021/05/30 10:39:33;;;;;;;;;7.25;7.25;;;;;23.29;45.68;101882.16;4990814;28;45543;-62
2021/05/30 10:42:25;;;;;;;;;10.25;9.00;;;;;23.29;45.59;101885.69;4992701;28;45876;-62
2021/05/30 10:45:06;;;;;;;;;10.00;9.50;;;;;23.32;45.97;101882.88;4978797;28;45550;-61
2021/05/30 10:47:44;;;;;;;;;9.00;9.00;;;;;23.32;45.70;101879.38;4998352;27;45518;-62
2021/05/30 10:50:12;;;;;;;;;12.00;9.25;;;;;23.32;45.64;101872.28;4996936;28;45773;-62
2021/05/30 10:52:40;;;;;;;;;8.50;8.50;;;;;23.34;45.87;101866.94;4996668;28;45460;-62
2021/05/30 10:55:11;;;;;;;;;7.50;7.50;;;;;23.36;45.71;101875.63;4997968;28;45668;-62
2021/05/30 10:57:43;;;;;;;;;7.00;7.00;;;;;23.35;45.62;101866.84;5044740;27;45589;-61
2021/05/30 11:00:20;;;;;;;;;8.50;8.00;;;;;23.37;45.63;101865.00;4989760;28;46873;-62
2021/05/30 11:03:18;;;;;;;;;8.00;7.50;;;;;23.40;45.53;101876.31;4997192;28;45841;-61
2021/05/30 11:05:59;;;;;;;;;7.75;7.00;;;;;23.39;45.37;101862.25;4965926;28;45647;-61
2021/05/30 11:08:31;;;;;;;;;10.50;9.00;;;;;23.40;45.50;101863.94;4985902;28;45587;-62
2021/05/30 11:11:11;;;;;;;;;8.00;8.00;;;;;23.41;45.22;101867.47;4996446;28;45591;-62
2021/05/30 11:14:02;;;;;;;;;9.50;8.00;;;;;23.41;45.18;101862.16;4997333;28;45365;-62
2021/05/30 11:16:32;;;;;;;;;7.00;7.00;;;;;23.42;45.12;101856.81;4985910;28;45477;-62
2021/05/30 11:19:03;;;;;;;;;8.25;8.00;;;;;23.44;45.06;101859.38;4996045;28;45585;-62
2021/05/30 11:21:33;;;;;;;;;8.00;7.00;;;;;23.43;45.59;101850.59;4980671;28;45585;-62
2021/05/30 11:24:00;;;;;;;;;9.00;8.00;;;;;23.44;44.93;101847.03;4995483;28;45763;-61
2021/05/30 11:26:26;;;;;;;;;7.75;6.50;;;;;23.45;44.90;101847.84;4995349;27;45431;-62